createdAt,value
2019-04-22T00:01:05.798Z,8.08
2019-04-22T00:03:38.729Z,8.09
2019-04-22T00:06:29.317Z,8.10
2019-04-22T00:08:55.927Z,8.11
2019-04-22T00:11:29.337Z,8.02
2019-04-22T00:13:53.853Z,7.99
2019-04-22T00:16:26.400Z,7.94
2019-04-22T00:19:11.566Z,7.98
2019-04-22T00:21:21.467Z,8.05
2019-04-22T00:23:49.582Z,8.17
2019-04-22T00:26:16.399Z,8.20
2019-04-22T00:28:51.936Z,8.19
2019-04-22T00:31:28.645Z,8.18
2019-04-22T00:33:52.968Z,8.11
2019-04-22T00:36:23.667Z,7.99
2019-04-22T00:38:54.287Z,7.92
2019-04-22T00:41:25.425Z,7.81
2019-04-22T00:43:53.010Z,7.75
2019-04-22T00:46:23.856Z,7.69
2019-04-22T00:48:57.508Z,7.65
2019-04-22T00:53:42.867Z,7.58
2019-04-22T00:56:20.260Z,7.56
2019-04-22T00:58:40.629Z,7.63
2019-04-22T01:01:14.315Z,7.75
2019-04-22T01:03:44.827Z,7.80
2019-04-22T01:06:14.818Z,7.76
2019-04-22T01:08:40.308Z,7.69
2019-04-22T01:11:14.963Z,7.58
2019-04-22T01:13:30.534Z,7.44
2019-04-22T01:16:04.474Z,7.34
2019-04-22T01:18:34.594Z,7.35
2019-04-22T01:23:28.154Z,7.29
2019-04-22T01:25:55.101Z,7.27
2019-04-22T01:28:20.159Z,7.21
2019-04-22T01:30:44.095Z,7.09
2019-04-22T01:33:11.992Z,7.02
2019-04-22T01:35:49.318Z,7.00
2019-04-22T01:38:22.528Z,6.88
2019-04-22T01:41:04.574Z,6.63
2019-04-22T01:43:33.622Z,6.49
2019-04-22T01:46:04.528Z,6.50
2019-04-22T01:48:30.810Z,6.61
2019-04-22T01:50:49.901Z,6.71
2019-04-22T01:53:24.441Z,6.78
2019-04-22T01:55:53.357Z,6.81
2019-04-22T01:58:10.998Z,6.82
2019-04-22T02:00:53.762Z,6.81
2019-04-22T02:03:19.041Z,6.76
2019-04-22T02:05:43.910Z,6.70
2019-04-22T02:08:25.575Z,6.64
2019-04-22T02:10:50.852Z,6.59
2019-04-22T02:13:15.634Z,6.52
2019-04-22T02:15:48.727Z,6.48
2019-04-22T02:18:17.899Z,6.45
2019-04-22T02:20:40.598Z,6.48
2019-04-22T02:26:01.145Z,6.46
2019-04-22T02:28:38.312Z,6.52
2019-04-22T02:41:16.028Z,6.44
2019-04-22T02:46:19.144Z,6.36
2019-04-22T02:48:48.229Z,6.42
2019-04-22T02:53:59.293Z,6.37
2019-04-22T02:56:08.208Z,6.21
2019-04-22T02:58:27.283Z,6.08
2019-04-22T03:01:01.219Z,6.07
2019-04-22T03:05:56.819Z,6.09
2019-04-22T03:10:56.579Z,6.08
2019-04-22T03:13:29.346Z,6.12
2019-04-22T03:15:54.956Z,6.12
2019-04-22T03:18:27.322Z,6.05
2019-04-22T03:20:42.856Z,5.97
2019-04-22T03:23:25.406Z,5.91
2019-04-22T03:28:04.663Z,5.69
2019-04-22T03:33:23.471Z,5.61
2019-04-22T03:38:19.374Z,5.52
2019-04-22T03:40:37.328Z,5.50
2019-04-22T03:43:04.979Z,5.49
2019-04-22T03:48:02.810Z,5.39
2019-04-22T03:55:41.815Z,5.21
2019-04-22T03:57:57.024Z,5.26
2019-04-22T04:03:01.074Z,5.28
2019-04-22T04:05:41.756Z,5.30
2019-04-22T04:10:35.372Z,5.33
2019-04-22T04:15:23.653Z,5.38
2019-04-22T04:17:54.983Z,5.34
2019-04-22T04:21:01.323Z,5.42
2019-04-22T04:35:27.869Z,5.65
2019-04-22T04:42:54.324Z,5.61
2019-04-22T04:45:33.745Z,5.59
2019-04-22T04:50:15.872Z,5.60
2019-04-22T05:02:48.932Z,6.20
2019-04-22T05:05:12.973Z,6.27
2019-04-22T05:07:48.535Z,6.40
2019-04-22T05:15:11.992Z,6.95
2019-04-22T05:17:43.916Z,7.17
2019-04-22T05:20:05.270Z,7.39
2019-04-22T05:22:33.605Z,7.57
2019-04-22T05:25:05.941Z,7.77
2019-04-22T05:32:24.449Z,8.52
2019-04-22T05:34:53.004Z,8.74
2019-04-22T05:37:27.516Z,9.00
2019-04-22T05:39:51.364Z,9.22
2019-04-22T05:42:21.717Z,9.54
2019-04-22T05:44:49.743Z,9.84
2019-04-22T05:47:19.435Z,9.96
2019-04-22T05:49:41.515Z,10.16
2019-04-22T05:52:19.284Z,10.38
2019-04-22T05:54:50.488Z,10.57
2019-04-22T05:57:14.598Z,10.75
2019-04-22T05:59:46.268Z,10.85
2019-04-22T06:02:13.632Z,11.07
2019-04-22T06:04:37.128Z,11.11
2019-04-22T06:07:06.626Z,11.14
2019-04-22T06:09:32.624Z,11.20
2019-04-22T06:12:05.000Z,11.39
2019-04-22T06:14:40.771Z,11.70
2019-04-22T06:17:11.249Z,12.12
2019-04-22T06:19:42.437Z,12.48
2019-04-22T06:22:09.090Z,12.68
2019-04-22T06:24:38.862Z,12.77
2019-04-22T06:27:08.011Z,12.89
2019-04-22T06:29:41.402Z,12.98
2019-04-22T06:34:28.882Z,13.55
2019-04-22T06:37:11.916Z,13.54
2019-04-22T06:39:30.783Z,13.71
2019-04-22T06:42:06.866Z,13.85
2019-04-22T06:44:26.077Z,13.86
2019-04-22T06:46:52.618Z,14.05
2019-04-22T06:49:26.732Z,14.01
2019-04-22T06:51:53.737Z,14.47
2019-04-22T06:54:23.408Z,14.88
2019-04-22T06:56:53.289Z,15.06
2019-04-22T06:59:15.963Z,15.44
2019-04-22T07:01:46.873Z,15.51
2019-04-22T07:04:09.251Z,15.45
2019-04-22T07:09:30.151Z,15.46
2019-04-22T07:11:36.662Z,16.04
2019-04-22T07:14:04.256Z,16.60
2019-04-22T07:16:38.102Z,16.69
2019-04-22T07:21:30.842Z,16.90
2019-04-22T07:24:24.242Z,17.33
2019-04-22T07:26:29.029Z,17.88
2019-04-22T07:29:01.472Z,18.26
2019-04-22T07:31:50.879Z,18.68
2019-04-22T07:34:08.089Z,18.81
2019-04-22T07:39:04.257Z,18.18
2019-04-22T07:41:31.760Z,18.17
2019-04-22T07:46:33.553Z,18.44
2019-04-22T07:49:00.015Z,18.73
2019-04-22T07:51:28.248Z,18.86
2019-04-22T07:53:56.291Z,18.90
2019-04-22T07:56:24.718Z,19.10
2019-04-22T07:58:55.652Z,19.43
2019-04-22T08:01:39.876Z,19.21
2019-04-22T08:03:59.853Z,19.53
2019-04-22T08:08:58.284Z,20.03
2019-04-22T08:11:32.663Z,19.84
2019-04-22T08:13:58.713Z,19.84
2019-04-22T08:16:16.532Z,19.86
2019-04-22T08:18:46.036Z,20.20
2019-04-22T08:21:13.702Z,20.51
2019-04-22T08:23:52.542Z,20.30
2019-04-22T08:26:13.450Z,20.51
2019-04-22T08:28:46.018Z,20.95
2019-04-22T08:31:18.565Z,21.00
2019-04-22T08:33:46.588Z,21.06
2019-04-22T08:38:53.920Z,20.82
2019-04-22T08:41:27.232Z,20.95
2019-04-22T08:43:56.213Z,21.09
2019-04-22T08:46:25.327Z,21.32
2019-04-22T08:48:57.761Z,21.17
2019-04-22T08:51:28.215Z,21.39
2019-04-22T08:56:29.352Z,22.08
2019-04-22T08:59:00.035Z,21.93
2019-04-22T09:03:52.661Z,21.79
2019-04-22T09:09:01.950Z,21.44
2019-04-22T09:11:35.618Z,21.44
2019-04-22T09:16:33.172Z,21.11
2019-04-22T09:19:03.204Z,21.59
2019-04-22T09:21:32.822Z,21.72
2019-04-22T09:24:06.842Z,21.69
2019-04-22T09:26:34.733Z,22.05
2019-04-22T09:28:59.939Z,21.52
2019-04-22T09:31:24.019Z,21.82
2019-04-22T09:33:59.609Z,21.81
2019-04-22T09:36:35.204Z,21.68
2019-04-22T09:39:00.650Z,21.73
2019-04-22T09:41:33.334Z,21.87
2019-04-22T09:43:56.637Z,22.60
2019-04-22T09:46:33.105Z,22.08
2019-04-22T09:49:05.233Z,22.50
2019-04-22T09:51:26.887Z,22.82
2019-04-22T09:54:04.081Z,22.99
2019-04-22T09:56:27.935Z,23.03
2019-04-22T10:06:29.297Z,22.74
2019-04-22T10:09:02.105Z,22.70
2019-04-22T10:11:23.613Z,22.73
2019-04-22T10:16:17.561Z,23.06
2019-04-22T10:18:49.106Z,22.87
2019-04-22T10:21:17.178Z,22.79
2019-04-22T10:24:00.291Z,22.99
2019-04-22T10:26:39.398Z,23.21
2019-04-22T10:29:10.736Z,23.24
2019-04-22T10:34:03.871Z,23.34
2019-04-22T10:36:19.505Z,23.18
2019-04-22T10:38:46.678Z,23.04
2019-04-22T10:41:14.393Z,22.94
2019-04-22T10:43:41.619Z,23.31
2019-04-22T10:46:10.324Z,23.46
2019-04-22T10:48:37.483Z,23.62
2019-04-22T10:51:04.681Z,23.41
2019-04-22T10:53:33.563Z,23.28
2019-04-22T10:56:03.037Z,23.16
2019-04-22T10:58:32.749Z,22.93
2019-04-22T11:01:00.379Z,22.72
2019-04-22T11:03:28.258Z,23.21
2019-04-22T11:05:56.958Z,22.93
2019-04-22T11:08:38.595Z,22.74
2019-04-22T11:11:16.698Z,22.98
2019-04-22T11:13:29.103Z,23.12
2019-04-22T11:15:56.313Z,23.03
2019-04-22T11:18:23.317Z,23.43
2019-04-22T11:20:51.479Z,23.08
2019-04-22T11:23:18.744Z,23.10
2019-04-22T11:25:46.173Z,22.89
2019-04-22T11:28:13.704Z,22.88
2019-04-22T11:30:42.676Z,22.87
2019-04-22T11:33:09.740Z,23.24
2019-04-22T11:35:37.517Z,23.48
2019-04-22T11:38:04.694Z,23.32
2019-04-22T11:40:37.860Z,22.79
2019-04-22T11:43:01.787Z,23.03
2019-04-22T11:45:29.221Z,23.38
2019-04-22T11:47:57.250Z,23.20
2019-04-22T11:50:27.968Z,23.32
2019-04-22T11:52:55.361Z,23.05
2019-04-22T11:55:24.481Z,22.66
2019-04-22T11:57:52.146Z,23.03
2019-04-22T12:00:25.192Z,23.05
2019-04-22T12:02:52.314Z,23.05
2019-04-22T12:05:19.686Z,22.72
2019-04-22T12:07:48.874Z,22.92
2019-04-22T12:10:29.913Z,23.28
2019-04-22T12:12:49.610Z,23.03
2019-04-22T12:15:17.077Z,23.10
2019-04-22T12:17:44.520Z,22.77
2019-04-22T12:20:14.555Z,23.03
2019-04-22T12:22:42.947Z,22.66
2019-04-22T12:25:12.465Z,22.97
2019-04-22T12:27:41.048Z,22.66
2019-04-22T12:30:09.197Z,22.64
2019-04-22T12:32:36.048Z,22.41
2019-04-22T12:35:03.416Z,22.38
2019-04-22T12:37:36.039Z,22.46
2019-04-22T12:40:00.389Z,22.02
2019-04-22T12:42:27.310Z,22.13
2019-04-22T12:44:54.347Z,22.24
2019-04-22T12:47:22.340Z,22.36
2019-04-22T12:49:55.327Z,22.33
2019-04-22T12:52:30.554Z,23.00
2019-04-22T12:54:47.131Z,22.46
2019-04-22T12:57:14.740Z,22.41
2019-04-22T12:59:43.791Z,22.58
2019-04-22T13:02:11.232Z,22.39
2019-04-22T13:04:38.515Z,21.94
2019-04-22T13:07:06.109Z,22.01
2019-04-22T13:09:33.554Z,21.73
2019-04-22T13:12:01.227Z,21.76
2019-04-22T13:14:28.534Z,21.58
2019-04-22T13:16:55.705Z,21.54
2019-04-22T13:19:23.487Z,21.78
2019-04-22T13:21:51.342Z,21.21
2019-04-22T13:24:20.099Z,21.59
2019-04-22T13:26:48.521Z,21.69
2019-04-22T13:29:16.869Z,21.46
2019-04-22T13:31:46.589Z,21.45
2019-04-22T13:34:21.404Z,21.45
2019-04-22T13:36:46.738Z,21.41
2019-04-22T13:39:13.690Z,21.06
2019-04-22T13:41:48.790Z,21.22
2019-04-22T13:44:09.956Z,20.81
2019-04-22T13:46:38.397Z,20.57
2019-04-22T13:49:31.083Z,20.64
2019-04-22T13:56:51.822Z,20.69
2019-04-22T13:59:13.647Z,20.54
2019-04-22T14:01:43.048Z,20.95
2019-04-22T14:04:16.358Z,20.50
2019-04-22T14:06:44.546Z,20.54
2019-04-22T14:09:13.561Z,20.25
2019-04-22T14:11:49.713Z,20.58
2019-04-22T14:14:12.680Z,20.19
2019-04-22T14:16:40.806Z,20.03
2019-04-22T14:19:07.974Z,20.10
2019-04-22T14:21:34.855Z,20.03
2019-04-22T14:24:02.699Z,20.02
2019-04-22T14:26:44.157Z,19.98
2019-04-22T14:29:04.212Z,19.45
2019-04-22T14:31:34.424Z,19.45
2019-04-22T14:34:05.312Z,19.50
2019-04-22T14:36:33.078Z,19.56
2019-04-22T14:39:00.095Z,19.52
2019-04-22T14:41:43.557Z,19.38
2019-04-22T14:44:56.457Z,19.22
2019-04-22T14:46:58.724Z,19.02
2019-04-22T14:49:24.302Z,19.02
2019-04-22T14:51:46.438Z,18.95
2019-04-22T14:54:09.715Z,18.95
2019-04-22T14:56:22.449Z,18.99
2019-04-22T14:58:50.862Z,19.13
2019-04-22T15:01:19.071Z,19.11
2019-04-22T15:03:48.339Z,18.85
2019-04-22T15:06:15.909Z,19.04
2019-04-22T15:08:44.975Z,18.93
2019-04-22T15:11:13.163Z,18.79
2019-04-22T15:13:41.187Z,18.74
2019-04-22T15:16:28.245Z,18.78
2019-04-22T15:19:03.748Z,18.99
2019-04-22T15:21:32.360Z,18.58
2019-04-22T15:24:22.795Z,18.58
2019-04-22T15:26:56.542Z,18.43
2019-04-22T15:29:25.351Z,18.47
2019-04-22T15:31:55.690Z,18.32
2019-04-22T15:34:22.940Z,18.36
2019-04-22T15:36:50.634Z,18.19
2019-04-22T15:39:18.639Z,18.12
2019-04-22T15:41:56.064Z,18.30
2019-04-22T15:44:15.208Z,18.18
2019-04-22T15:46:42.644Z,18.22
2019-04-22T15:49:16.078Z,18.14
2019-04-22T15:52:02.158Z,18.07
2019-04-22T15:54:27.925Z,18.02
2019-04-22T15:56:54.906Z,17.86
2019-04-22T15:59:38.875Z,17.76
2019-04-22T16:01:52.431Z,17.68
2019-04-22T16:04:20.962Z,17.70
2019-04-22T16:06:49.463Z,17.71
2019-04-22T16:09:17.342Z,17.64
2019-04-22T16:11:45.653Z,17.50
2019-04-22T16:14:15.142Z,17.46
2019-04-22T16:16:42.938Z,17.43
2019-04-22T16:19:09.841Z,17.33
2019-04-22T16:21:49.038Z,17.24
2019-04-22T16:24:32.116Z,17.17
2019-04-22T16:27:18.700Z,17.19
2019-04-22T16:29:45.539Z,17.04
2019-04-22T16:32:13.648Z,16.88
2019-04-22T16:34:40.672Z,16.87
2019-04-22T16:37:07.490Z,16.75
2019-04-22T16:39:34.266Z,16.74
2019-04-22T16:42:02.466Z,16.59
2019-04-22T16:44:30.530Z,16.41
2019-04-22T16:46:57.467Z,16.46
2019-04-22T16:49:25.453Z,16.38
2019-04-22T16:51:56.057Z,16.32
2019-04-22T16:54:24.383Z,16.15
2019-04-22T16:56:52.283Z,16.08
2019-04-22T16:59:19.118Z,16.01
2019-04-22T17:02:06.409Z,15.90
2019-04-22T17:04:57.750Z,15.85
2019-04-22T17:07:24.642Z,15.78
2019-04-22T17:09:57.666Z,15.72
2019-04-22T17:12:37.783Z,15.64
2019-04-22T17:15:00.032Z,15.59
2019-04-22T17:17:22.346Z,15.52
2019-04-22T17:19:49.339Z,15.32
2019-04-22T17:22:17.497Z,15.19
2019-04-22T17:24:45.782Z,15.14
2019-04-22T17:27:12.860Z,15.05
2019-04-22T17:29:41.054Z,14.86
2019-04-22T17:32:13.126Z,14.75
2019-04-22T17:34:39.187Z,14.68
2019-04-22T17:37:12.713Z,14.61
2019-04-22T17:39:45.366Z,14.52
2019-04-22T17:42:35.583Z,14.36
2019-04-22T17:45:15.784Z,14.31
2019-04-22T17:48:04.302Z,14.24
2019-04-22T17:50:37.921Z,14.11
2019-04-22T17:53:08.641Z,14.01
2019-04-22T17:55:38.449Z,13.92
2019-04-22T17:58:04.236Z,13.88
2019-04-22T18:00:25.438Z,13.82
2019-04-22T18:02:52.040Z,13.68
2019-04-22T18:05:13.024Z,13.56
2019-04-22T18:08:02.631Z,13.53
2019-04-22T18:10:33.081Z,13.44
2019-04-22T18:13:06.987Z,13.42
2019-04-22T18:15:23.982Z,13.29
2019-04-22T18:18:01.026Z,13.23
2019-04-22T18:20:22.600Z,13.13
2019-04-22T18:22:46.245Z,13.09
2019-04-22T18:25:16.369Z,13.00
2019-04-22T18:28:00.677Z,12.90
2019-04-22T18:30:18.024Z,12.81
2019-04-22T18:32:53.302Z,12.74
2019-04-22T18:35:15.528Z,12.71
2019-04-22T18:37:50.052Z,12.71
2019-04-22T18:40:14.969Z,12.58
2019-04-22T18:42:53.599Z,12.55
2019-04-22T18:45:29.687Z,12.50
2019-04-22T18:47:41.436Z,12.45
2019-04-22T18:50:08.805Z,12.39
2019-04-22T18:53:07.076Z,12.39
2019-04-22T18:55:44.257Z,12.29
2019-04-22T18:58:16.605Z,12.29
2019-04-22T19:00:31.750Z,12.24
2019-04-22T19:03:03.877Z,12.13
2019-04-22T19:05:45.463Z,12.05
2019-04-22T19:08:23.244Z,12.02
2019-04-22T19:15:54.207Z,11.85
2019-04-22T19:18:24.233Z,11.85
2019-04-22T19:20:51.343Z,11.79
2019-04-22T19:23:17.702Z,11.71
2019-04-22T19:25:42.322Z,11.67
2019-04-22T19:28:27.410Z,11.60
2019-04-22T19:30:48.201Z,11.56
2019-04-22T19:33:19.191Z,11.51
2019-04-22T19:35:42.829Z,11.42
2019-04-22T19:38:11.665Z,11.43
2019-04-22T19:40:55.406Z,11.38
2019-04-22T19:43:18.710Z,11.32
2019-04-22T19:45:44.449Z,11.28
2019-04-22T19:48:25.091Z,11.23
2019-04-22T19:50:50.444Z,11.22
2019-04-22T19:53:10.124Z,11.15
2019-04-22T19:55:43.736Z,11.07
2019-04-22T19:58:07.251Z,11.06
2019-04-22T20:00:53.571Z,11.02
2019-04-22T20:03:52.314Z,11.01
2019-04-22T20:06:21.995Z,10.99
2019-04-22T20:08:57.316Z,11.04
2019-04-22T20:11:23.249Z,11.00
2019-04-22T20:14:01.293Z,11.04
2019-04-22T20:16:20.725Z,11.04
2019-04-22T20:18:52.384Z,11.07
2019-04-22T20:21:22.292Z,11.10
2019-04-22T20:23:39.088Z,11.11
2019-04-22T20:26:07.305Z,11.09
2019-04-22T20:28:49.206Z,11.03
2019-04-22T20:31:14.102Z,10.95
2019-04-22T20:33:44.517Z,10.92
2019-04-22T20:36:26.905Z,10.93
2019-04-22T20:38:42.498Z,10.97
2019-04-22T20:41:05.534Z,10.93
2019-04-22T20:43:43.285Z,10.89
2019-04-22T20:46:06.276Z,10.85
2019-04-22T20:48:40.880Z,10.81
2019-04-22T20:51:04.168Z,10.78
2019-04-22T20:53:36.468Z,10.72
2019-04-22T20:56:00.722Z,10.69
2019-04-22T20:58:28.543Z,10.69
2019-04-22T21:00:50.571Z,10.57
2019-04-22T21:03:17.468Z,10.52
2019-04-22T21:05:47.191Z,10.46
2019-04-22T21:08:24.464Z,10.43
2019-04-22T21:10:45.596Z,10.41
2019-04-22T21:13:13.992Z,10.25
2019-04-22T21:15:49.446Z,10.21
2019-04-22T21:18:15.410Z,10.11
2019-04-22T21:20:54.438Z,10.00
2019-04-22T21:23:13.952Z,9.96
2019-04-22T21:25:35.852Z,9.96
2019-04-22T21:28:14.469Z,9.95
2019-04-22T21:30:37.269Z,10.03
2019-04-22T21:33:08.294Z,10.08
2019-04-22T21:35:53.986Z,10.06
2019-04-22T21:38:09.774Z,10.02
2019-04-22T21:40:34.426Z,9.99
2019-04-22T21:43:13.367Z,9.97
2019-04-22T21:45:28.129Z,10.06
2019-04-22T21:48:18.104Z,10.10
2019-04-22T21:50:41.480Z,10.15
2019-04-22T21:53:07.299Z,10.16
2019-04-22T21:55:37.486Z,10.22
2019-04-22T21:58:16.061Z,10.17
2019-04-22T22:00:53.509Z,10.14
2019-04-22T22:03:13.046Z,10.06
2019-04-22T22:05:34.202Z,10.02
2019-04-22T22:08:05.605Z,10.00
2019-04-22T22:10:39.867Z,9.94
2019-04-22T22:13:08.708Z,9.90
2019-04-22T22:15:35.050Z,9.86
2019-04-22T22:18:02.264Z,9.78
2019-04-22T22:20:36.010Z,9.74
2019-04-22T22:23:11.997Z,9.68
2019-04-22T22:25:32.034Z,9.64
2019-04-22T22:27:58.674Z,9.55
2019-04-22T22:30:41.558Z,9.49
2019-04-22T22:33:01.273Z,9.51
2019-04-22T22:35:26.671Z,9.47
2019-04-22T22:37:50.415Z,9.46
2019-04-22T22:40:10.696Z,9.41
2019-04-22T22:42:38.667Z,9.41
2019-04-22T22:45:10.648Z,9.30
2019-04-22T22:47:44.576Z,9.29
2019-04-22T22:50:15.970Z,9.18
2019-04-22T22:55:20.243Z,9.01
2019-04-22T22:57:44.302Z,8.98
2019-04-22T23:00:11.847Z,8.94
2019-04-22T23:02:47.242Z,8.85
2019-04-22T23:05:09.674Z,8.77
2019-04-22T23:07:40.894Z,8.70
2019-04-22T23:10:09.317Z,8.63
2019-04-22T23:12:55.810Z,8.57
2019-04-22T23:15:04.690Z,8.56
2019-04-22T23:17:18.787Z,8.47
2019-04-22T23:19:48.695Z,8.47
2019-04-22T23:22:20.350Z,8.45
2019-04-22T23:25:01.741Z,8.38
2019-04-22T23:27:34.174Z,8.33
2019-04-22T23:30:02.390Z,8.33
2019-04-22T23:32:31.804Z,8.28
2019-04-22T23:35:10.054Z,8.26
2019-04-22T23:37:39.367Z,8.27
2019-04-22T23:40:16.075Z,8.34
2019-04-22T23:42:33.804Z,8.34
2019-04-22T23:45:09.512Z,8.36
2019-04-22T23:47:31.001Z,8.34
2019-04-22T23:50:17.987Z,8.27
2019-04-22T23:52:43.324Z,8.21
2019-04-22T23:55:09.898Z,8.21
2019-04-22T23:57:42.132Z,8.20
